sensor_id;sensor_type;location;lat;lon;timestamp;P1;durP1;ratioP1;P2;durP2;ratioP2
17598;SDS011;8918;52.092;5.232;2022-10-16T00:01:57;7.07;;;2.40;;
17598;SDS011;8918;52.092;5.232;2022-10-16T00:04:22;5.53;;;2.10;;
17598;SDS011;8918;52.092;5.232;2022-10-16T00:06:48;5.93;;;2.30;;
17598;SDS011;8918;52.092;5.232;2022-10-16T00:09:13;5.07;;;2.40;;
17598;SDS011;8918;52.092;5.232;2022-10-16T00:11:39;4.43;;;2.73;;
17598;SDS011;8918;52.092;5.232;2022-10-16T00:14:06;3.47;;;2.10;;
17598;SDS011;8918;52.092;5.232;2022-10-16T00:16:35;6.33;;;2.60;;
17598;SDS011;8918;52.092;5.232;2022-10-16T00:19:01;6.33;;;2.37;;
17598;SDS011;8918;52.092;5.232;2022-10-16T00:21:27;4.97;;;2.50;;
17598;SDS011;8918;52.092;5.232;2022-10-16T00:23:58;4.43;;;2.67;;
17598;SDS011;8918;52.092;5.232;2022-10-16T00:26:29;3.77;;;2.40;;
17598;SDS011;8918;52.092;5.232;2022-10-16T00:28:56;5.77;;;2.83;;
17598;SDS011;8918;52.092;5.232;2022-10-16T00:31:23;6.13;;;2.50;;
17598;SDS011;8918;52.092;5.232;2022-10-16T00:33:48;4.80;;;2.93;;
17598;SDS011;8918;52.092;5.232;2022-10-16T00:36:16;5.53;;;2.80;;
17598;SDS011;8918;52.092;5.232;2022-10-16T00:38:44;5.90;;;3.00;;
17598;SDS011;8918;52.092;5.232;2022-10-16T00:41:10;6.40;;;2.87;;
17598;SDS011;8918;52.092;5.232;2022-10-16T00:49:34;5.50;;;2.90;;
17598;SDS011;8918;52.092;5.232;2022-10-16T00:51:53;5.50;;;3.40;;
17598;SDS011;8918;52.092;5.232;2022-10-16T00:54:29;9.90;;;3.57;;
17598;SDS011;8918;52.092;5.232;2022-10-16T00:56:58;7.10;;;3.20;;
17598;SDS011;8918;52.092;5.232;2022-10-16T00:59:33;6.63;;;3.37;;
17598;SDS011;8918;52.092;5.232;2022-10-16T01:02:02;6.30;;;3.30;;
17598;SDS011;8918;52.092;5.232;2022-10-16T01:04:30;4.20;;;3.07;;
17598;SDS011;8918;52.092;5.232;2022-10-16T01:09:31;5.50;;;3.10;;
17598;SDS011;8918;52.092;5.232;2022-10-16T01:12:22;5.60;;;3.03;;
17598;SDS011;8918;52.092;5.232;2022-10-16T01:15:00;5.40;;;3.13;;
17598;SDS011;8918;52.092;5.232;2022-10-16T01:17:38;5.67;;;2.97;;
17598;SDS011;8918;52.092;5.232;2022-10-16T01:22:58;4.33;;;3.17;;
17598;SDS011;8918;52.092;5.232;2022-10-16T01:25:49;3.60;;;3.10;;
17598;SDS011;8918;52.092;5.232;2022-10-16T01:28:41;6.03;;;3.10;;
17598;SDS011;8918;52.092;5.232;2022-10-16T01:31:18;7.17;;;3.50;;
17598;SDS011;8918;52.092;5.232;2022-10-16T01:33:48;5.00;;;3.10;;
17598;SDS011;8918;52.092;5.232;2022-10-16T01:36:42;6.63;;;2.97;;
17598;SDS011;8918;52.092;5.232;2022-10-16T01:39:13;5.10;;;3.03;;
17598;SDS011;8918;52.092;5.232;2022-10-16T01:41:45;6.50;;;3.50;;
17598;SDS011;8918;52.092;5.232;2022-10-16T01:44:18;5.63;;;3.00;;
17598;SDS011;8918;52.092;5.232;2022-10-16T01:46:48;4.77;;;3.17;;
17598;SDS011;8918;52.092;5.232;2022-10-16T01:49:16;4.17;;;3.10;;
17598;SDS011;8918;52.092;5.232;2022-10-16T01:51:44;5.33;;;3.07;;
17598;SDS011;8918;52.092;5.232;2022-10-16T01:54:13;8.17;;;3.43;;
17598;SDS011;8918;52.092;5.232;2022-10-16T01:56:41;5.30;;;2.77;;
17598;SDS011;8918;52.092;5.232;2022-10-16T01:59:11;4.90;;;2.93;;
17598;SDS011;8918;52.092;5.232;2022-10-16T02:01:40;5.13;;;3.00;;
17598;SDS011;8918;52.092;5.232;2022-10-16T02:04:14;5.57;;;3.20;;
17598;SDS011;8918;52.092;5.232;2022-10-16T02:06:43;5.10;;;3.07;;
17598;SDS011;8918;52.092;5.232;2022-10-16T02:09:09;6.17;;;3.37;;
17598;SDS011;8918;52.092;5.232;2022-10-16T02:11:35;4.73;;;3.17;;
17598;SDS011;8918;52.092;5.232;2022-10-16T02:14:02;5.43;;;3.47;;
17598;SDS011;8918;52.092;5.232;2022-10-16T02:16:34;6.23;;;3.30;;
17598;SDS011;8918;52.092;5.232;2022-10-16T02:19:05;3.63;;;3.20;;
17598;SDS011;8918;52.092;5.232;2022-10-16T02:21:43;4.80;;;3.20;;
17598;SDS011;8918;52.092;5.232;2022-10-16T02:26:57;6.27;;;3.17;;
17598;SDS011;8918;52.092;5.232;2022-10-16T02:29:30;3.80;;;3.30;;
17598;SDS011;8918;52.092;5.232;2022-10-16T02:32:00;5.33;;;3.40;;
17598;SDS011;8918;52.092;5.232;2022-10-16T02:34:29;4.17;;;3.20;;
17598;SDS011;8918;52.092;5.232;2022-10-16T02:36:57;6.40;;;3.37;;
17598;SDS011;8918;52.092;5.232;2022-10-16T02:39:24;4.40;;;3.07;;
17598;SDS011;8918;52.092;5.232;2022-10-16T02:41:53;5.07;;;3.33;;
17598;SDS011;8918;52.092;5.232;2022-10-16T02:44:18;3.93;;;2.73;;
17598;SDS011;8918;52.092;5.232;2022-10-16T02:46:44;6.50;;;3.33;;
17598;SDS011;8918;52.092;5.232;2022-10-16T02:49:09;4.10;;;3.20;;
17598;SDS011;8918;52.092;5.232;2022-10-16T02:51:35;4.00;;;3.03;;
17598;SDS011;8918;52.092;5.232;2022-10-16T02:54:01;3.77;;;3.03;;
17598;SDS011;8918;52.092;5.232;2022-10-16T02:56:27;4.73;;;2.83;;
17598;SDS011;8918;52.092;5.232;2022-10-16T02:58:52;5.17;;;2.73;;
17598;SDS011;8918;52.092;5.232;2022-10-16T03:01:18;3.50;;;2.70;;
17598;SDS011;8918;52.092;5.232;2022-10-16T03:03:44;4.07;;;2.90;;
17598;SDS011;8918;52.092;5.232;2022-10-16T03:06:09;5.00;;;3.10;;
17598;SDS011;8918;52.092;5.232;2022-10-16T03:08:35;4.30;;;2.73;;
17598;SDS011;8918;52.092;5.232;2022-10-16T03:11:01;3.33;;;2.90;;
17598;SDS011;8918;52.092;5.232;2022-10-16T03:13:26;6.73;;;2.93;;
17598;SDS011;8918;52.092;5.232;2022-10-16T03:15:52;6.30;;;2.93;;
17598;SDS011;8918;52.092;5.232;2022-10-16T03:18:18;3.43;;;2.87;;
17598;SDS011;8918;52.092;5.232;2022-10-16T03:20:43;4.67;;;2.90;;
17598;SDS011;8918;52.092;5.232;2022-10-16T03:23:09;3.57;;;2.57;;
17598;SDS011;8918;52.092;5.232;2022-10-16T03:25:34;2.93;;;2.50;;
17598;SDS011;8918;52.092;5.232;2022-10-16T03:28:00;3.40;;;2.50;;
17598;SDS011;8918;52.092;5.232;2022-10-16T03:30:26;4.53;;;2.73;;
17598;SDS011;8918;52.092;5.232;2022-10-16T03:32:52;4.33;;;2.47;;
17598;SDS011;8918;52.092;5.232;2022-10-16T03:35:19;6.27;;;2.70;;
17598;SDS011;8918;52.092;5.232;2022-10-16T03:37:45;3.80;;;2.33;;
17598;SDS011;8918;52.092;5.232;2022-10-16T03:40:11;4.20;;;2.53;;
17598;SDS011;8918;52.092;5.232;2022-10-16T03:42:36;4.20;;;2.40;;
17598;SDS011;8918;52.092;5.232;2022-10-16T03:45:02;3.47;;;2.73;;
17598;SDS011;8918;52.092;5.232;2022-10-16T03:47:28;3.17;;;2.43;;
17598;SDS011;8918;52.092;5.232;2022-10-16T03:49:54;8.00;;;2.50;;
17598;SDS011;8918;52.092;5.232;2022-10-16T03:52:19;3.67;;;2.60;;
17598;SDS011;8918;52.092;5.232;2022-10-16T03:54:45;3.93;;;2.10;;
17598;SDS011;8918;52.092;5.232;2022-10-16T03:57:10;3.73;;;2.40;;
17598;SDS011;8918;52.092;5.232;2022-10-16T03:59:36;4.20;;;2.30;;
17598;SDS011;8918;52.092;5.232;2022-10-16T04:02:01;3.30;;;2.30;;
17598;SDS011;8918;52.092;5.232;2022-10-16T04:04:27;3.73;;;2.40;;
17598;SDS011;8918;52.092;5.232;2022-10-16T04:06:53;3.73;;;2.40;;
17598;SDS011;8918;52.092;5.232;2022-10-16T04:09:18;5.87;;;2.30;;
17598;SDS011;8918;52.092;5.232;2022-10-16T04:11:44;4.17;;;2.40;;
17598;SDS011;8918;52.092;5.232;2022-10-16T04:14:09;3.70;;;2.30;;
17598;SDS011;8918;52.092;5.232;2022-10-16T04:16:35;3.37;;;2.07;;
17598;SDS011;8918;52.092;5.232;2022-10-16T04:19:00;3.40;;;2.20;;
17598;SDS011;8918;52.092;5.232;2022-10-16T04:21:26;4.73;;;2.40;;
17598;SDS011;8918;52.092;5.232;2022-10-16T04:23:52;3.77;;;2.30;;
17598;SDS011;8918;52.092;5.232;2022-10-16T04:26:18;3.53;;;2.20;;
17598;SDS011;8918;52.092;5.232;2022-10-16T04:28:43;5.57;;;2.33;;
17598;SDS011;8918;52.092;5.232;2022-10-16T04:31:09;3.20;;;2.30;;
17598;SDS011;8918;52.092;5.232;2022-10-16T04:33:34;2.67;;;2.37;;
17598;SDS011;8918;52.092;5.232;2022-10-16T04:36:01;4.90;;;2.23;;
17598;SDS011;8918;52.092;5.232;2022-10-16T04:38:27;5.27;;;2.50;;
17598;SDS011;8918;52.092;5.232;2022-10-16T04:40:53;3.27;;;2.20;;
17598;SDS011;8918;52.092;5.232;2022-10-16T04:43:19;4.07;;;2.23;;
17598;SDS011;8918;52.092;5.232;2022-10-16T04:45:45;3.07;;;2.20;;
17598;SDS011;8918;52.092;5.232;2022-10-16T04:48:10;3.40;;;2.00;;
17598;SDS011;8918;52.092;5.232;2022-10-16T04:50:36;4.20;;;2.10;;
17598;SDS011;8918;52.092;5.232;2022-10-16T04:53:02;4.33;;;2.23;;
17598;SDS011;8918;52.092;5.232;2022-10-16T04:55:27;3.10;;;1.93;;
17598;SDS011;8918;52.092;5.232;2022-10-16T04:57:53;6.47;;;2.30;;
17598;SDS011;8918;52.092;5.232;2022-10-16T05:00:18;3.40;;;2.47;;
17598;SDS011;8918;52.092;5.232;2022-10-16T05:02:44;3.07;;;2.23;;
17598;SDS011;8918;52.092;5.232;2022-10-16T05:05:10;3.33;;;2.00;;
17598;SDS011;8918;52.092;5.232;2022-10-16T05:07:36;3.70;;;2.40;;
17598;SDS011;8918;52.092;5.232;2022-10-16T05:10:01;4.33;;;2.60;;
17598;SDS011;8918;52.092;5.232;2022-10-16T05:12:27;6.53;;;2.40;;
17598;SDS011;8918;52.092;5.232;2022-10-16T05:14:53;2.97;;;2.30;;
17598;SDS011;8918;52.092;5.232;2022-10-16T05:17:23;5.50;;;2.17;;
17598;SDS011;8918;52.092;5.232;2022-10-16T05:19:51;6.17;;;2.57;;
17598;SDS011;8918;52.092;5.232;2022-10-16T05:22:17;3.90;;;2.37;;
17598;SDS011;8918;52.092;5.232;2022-10-16T05:24:43;4.47;;;2.23;;
17598;SDS011;8918;52.092;5.232;2022-10-16T05:27:09;4.73;;;2.60;;
17598;SDS011;8918;52.092;5.232;2022-10-16T05:29:35;5.17;;;2.23;;
17598;SDS011;8918;52.092;5.232;2022-10-16T05:32:01;5.30;;;2.40;;
17598;SDS011;8918;52.092;5.232;2022-10-16T05:34:27;6.07;;;2.60;;
17598;SDS011;8918;52.092;5.232;2022-10-16T05:36:52;5.00;;;2.50;;
17598;SDS011;8918;52.092;5.232;2022-10-16T05:39:18;7.07;;;2.90;;
17598;SDS011;8918;52.092;5.232;2022-10-16T05:41:44;5.10;;;2.70;;
17598;SDS011;8918;52.092;5.232;2022-10-16T05:44:09;3.50;;;2.63;;
17598;SDS011;8918;52.092;5.232;2022-10-16T05:46:36;5.90;;;2.47;;
17598;SDS011;8918;52.092;5.232;2022-10-16T05:49:01;3.30;;;2.50;;
17598;SDS011;8918;52.092;5.232;2022-10-16T05:51:27;4.03;;;2.63;;
17598;SDS011;8918;52.092;5.232;2022-10-16T05:53:52;4.63;;;2.70;;
17598;SDS011;8918;52.092;5.232;2022-10-16T05:56:18;4.37;;;3.20;;
17598;SDS011;8918;52.092;5.232;2022-10-16T05:58:44;3.00;;;2.70;;
17598;SDS011;8918;52.092;5.232;2022-10-16T06:01:16;4.73;;;2.60;;
17598;SDS011;8918;52.092;5.232;2022-10-16T06:03:44;3.03;;;2.63;;
17598;SDS011;8918;52.092;5.232;2022-10-16T06:06:10;4.03;;;2.60;;
17598;SDS011;8918;52.092;5.232;2022-10-16T06:08:37;3.60;;;2.73;;
17598;SDS011;8918;52.092;5.232;2022-10-16T06:11:04;5.83;;;2.87;;
17598;SDS011;8918;52.092;5.232;2022-10-16T06:13:31;3.43;;;2.73;;
17598;SDS011;8918;52.092;5.232;2022-10-16T06:15:58;3.57;;;2.77;;
17598;SDS011;8918;52.092;5.232;2022-10-16T06:18:25;3.27;;;2.43;;
17598;SDS011;8918;52.092;5.232;2022-10-16T06:20:51;6.33;;;2.70;;
17598;SDS011;8918;52.092;5.232;2022-10-16T06:23:17;4.00;;;2.50;;
17598;SDS011;8918;52.092;5.232;2022-10-16T06:25:43;5.33;;;2.90;;
17598;SDS011;8918;52.092;5.232;2022-10-16T06:28:09;6.60;;;2.67;;
17598;SDS011;8918;52.092;5.232;2022-10-16T06:30:34;3.10;;;2.70;;
17598;SDS011;8918;52.092;5.232;2022-10-16T06:33:00;5.93;;;2.77;;
17598;SDS011;8918;52.092;5.232;2022-10-16T06:35:25;3.73;;;2.57;;
17598;SDS011;8918;52.092;5.232;2022-10-16T06:37:52;5.50;;;2.93;;
17598;SDS011;8918;52.092;5.232;2022-10-16T06:40:18;5.30;;;2.90;;
17598;SDS011;8918;52.092;5.232;2022-10-16T06:42:43;5.17;;;2.80;;
17598;SDS011;8918;52.092;5.232;2022-10-16T06:45:09;7.07;;;3.30;;
17598;SDS011;8918;52.092;5.232;2022-10-16T06:47:35;5.20;;;3.33;;
17598;SDS011;8918;52.092;5.232;2022-10-16T06:50:01;3.03;;;2.73;;
17598;SDS011;8918;52.092;5.232;2022-10-16T06:52:28;6.40;;;2.80;;
17598;SDS011;8918;52.092;5.232;2022-10-16T06:54:54;6.20;;;2.90;;
17598;SDS011;8918;52.092;5.232;2022-10-16T06:57:19;6.33;;;3.07;;
17598;SDS011;8918;52.092;5.232;2022-10-16T06:59:45;8.37;;;3.00;;
17598;SDS011;8918;52.092;5.232;2022-10-16T07:02:10;5.50;;;3.20;;
17598;SDS011;8918;52.092;5.232;2022-10-16T07:04:36;5.00;;;2.90;;
17598;SDS011;8918;52.092;5.232;2022-10-16T07:07:02;5.83;;;3.23;;
17598;SDS011;8918;52.092;5.232;2022-10-16T07:09:27;4.03;;;2.70;;
17598;SDS011;8918;52.092;5.232;2022-10-16T07:11:53;5.07;;;2.67;;
17598;SDS011;8918;52.092;5.232;2022-10-16T07:14:19;4.70;;;2.70;;
17598;SDS011;8918;52.092;5.232;2022-10-16T07:16:46;4.27;;;2.70;;
17598;SDS011;8918;52.092;5.232;2022-10-16T07:19:12;5.33;;;2.70;;
17598;SDS011;8918;52.092;5.232;2022-10-16T07:21:39;6.07;;;2.50;;
17598;SDS011;8918;52.092;5.232;2022-10-16T07:24:06;6.43;;;2.27;;
17598;SDS011;8918;52.092;5.232;2022-10-16T07:26:36;4.97;;;2.60;;
17598;SDS011;8918;52.092;5.232;2022-10-16T07:29:04;4.33;;;2.37;;
17598;SDS011;8918;52.092;5.232;2022-10-16T07:31:38;5.47;;;2.30;;
17598;SDS011;8918;52.092;5.232;2022-10-16T07:34:04;5.27;;;2.23;;
17598;SDS011;8918;52.092;5.232;2022-10-16T07:36:30;4.33;;;2.20;;
17598;SDS011;8918;52.092;5.232;2022-10-16T07:38:55;6.37;;;2.00;;
17598;SDS011;8918;52.092;5.232;2022-10-16T07:41:21;5.03;;;1.90;;
17598;SDS011;8918;52.092;5.232;2022-10-16T07:43:50;4.77;;;2.70;;
17598;SDS011;8918;52.092;5.232;2022-10-16T07:46:18;4.20;;;2.50;;
17598;SDS011;8918;52.092;5.232;2022-10-16T07:48:45;7.13;;;2.67;;
17598;SDS011;8918;52.092;5.232;2022-10-16T07:51:12;5.13;;;2.77;;
17598;SDS011;8918;52.092;5.232;2022-10-16T07:53:40;4.13;;;2.70;;
17598;SDS011;8918;52.092;5.232;2022-10-16T07:56:06;6.53;;;2.77;;
17598;SDS011;8918;52.092;5.232;2022-10-16T07:58:33;4.80;;;2.80;;
17598;SDS011;8918;52.092;5.232;2022-10-16T08:01:02;6.20;;;2.90;;
17598;SDS011;8918;52.092;5.232;2022-10-16T08:03:29;4.60;;;2.90;;
17598;SDS011;8918;52.092;5.232;2022-10-16T08:05:56;5.73;;;2.87;;
17598;SDS011;8918;52.092;5.232;2022-10-16T08:08:22;4.23;;;2.77;;
17598;SDS011;8918;52.092;5.232;2022-10-16T08:10:48;5.70;;;3.10;;
17598;SDS011;8918;52.092;5.232;2022-10-16T08:13:13;6.83;;;2.90;;
17598;SDS011;8918;52.092;5.232;2022-10-16T08:15:40;5.43;;;2.80;;
17598;SDS011;8918;52.092;5.232;2022-10-16T08:18:10;4.50;;;2.73;;
17598;SDS011;8918;52.092;5.232;2022-10-16T08:20:36;3.57;;;2.80;;
17598;SDS011;8918;52.092;5.232;2022-10-16T08:23:02;7.60;;;2.57;;
17598;SDS011;8918;52.092;5.232;2022-10-16T08:25:28;7.93;;;2.77;;
17598;SDS011;8918;52.092;5.232;2022-10-16T08:27:54;5.53;;;2.70;;
17598;SDS011;8918;52.092;5.232;2022-10-16T08:30:20;5.63;;;2.60;;
17598;SDS011;8918;52.092;5.232;2022-10-16T08:32:47;4.37;;;2.40;;
17598;SDS011;8918;52.092;5.232;2022-10-16T08:35:13;4.47;;;2.40;;
17598;SDS011;8918;52.092;5.232;2022-10-16T08:37:41;4.90;;;3.10;;
17598;SDS011;8918;52.092;5.232;2022-10-16T08:40:12;5.00;;;2.85;;
17598;SDS011;8918;52.092;5.232;2022-10-16T08:48:20;5.57;;;2.40;;
17598;SDS011;8918;52.092;5.232;2022-10-16T08:50:51;5.33;;;2.50;;
17598;SDS011;8918;52.092;5.232;2022-10-16T08:53:20;7.72;;;2.35;;
17598;SDS011;8918;52.092;5.232;2022-10-16T08:55:55;5.18;;;2.53;;
17598;SDS011;8918;52.092;5.232;2022-10-16T08:58:21;5.35;;;2.60;;
17598;SDS011;8918;52.092;5.232;2022-10-16T09:00:55;5.45;;;2.40;;
17598;SDS011;8918;52.092;5.232;2022-10-16T09:03:45;5.77;;;2.43;;
17598;SDS011;8918;52.092;5.232;2022-10-16T09:09:39;5.43;;;2.05;;
17598;SDS011;8918;52.092;5.232;2022-10-16T09:12:24;6.43;;;2.28;;
17598;SDS011;8918;52.092;5.232;2022-10-16T09:17:56;7.65;;;2.30;;
17598;SDS011;8918;52.092;5.232;2022-10-16T09:20:31;8.57;;;2.33;;
17598;SDS011;8918;52.092;5.232;2022-10-16T09:23:21;5.05;;;2.15;;
17598;SDS011;8918;52.092;5.232;2022-10-16T09:25:48;6.32;;;2.20;;
17598;SDS011;8918;52.092;5.232;2022-10-16T09:28:15;5.18;;;1.95;;
17598;SDS011;8918;52.092;5.232;2022-10-16T09:30:42;8.07;;;2.65;;
17598;SDS011;8918;52.092;5.232;2022-10-16T09:33:09;6.85;;;2.22;;
17598;SDS011;8918;52.092;5.232;2022-10-16T09:35:40;7.03;;;2.22;;
17598;SDS011;8918;52.092;5.232;2022-10-16T09:38:08;8.50;;;2.53;;
17598;SDS011;8918;52.092;5.232;2022-10-16T09:40:45;4.95;;;1.90;;
17598;SDS011;8918;52.092;5.232;2022-10-16T09:43:19;7.88;;;2.17;;
17598;SDS011;8918;52.092;5.232;2022-10-16T09:45:57;8.07;;;2.42;;
17598;SDS011;8918;52.092;5.232;2022-10-16T09:48:26;6.88;;;2.33;;
17598;SDS011;8918;52.092;5.232;2022-10-16T09:51:03;7.22;;;2.30;;
17598;SDS011;8918;52.092;5.232;2022-10-16T09:53:40;6.90;;;2.13;;
17598;SDS011;8918;52.092;5.232;2022-10-16T09:56:21;7.15;;;2.15;;
17598;SDS011;8918;52.092;5.232;2022-10-16T09:58:55;9.68;;;2.10;;
17598;SDS011;8918;52.092;5.232;2022-10-16T10:01:24;6.93;;;2.10;;
17598;SDS011;8918;52.092;5.232;2022-10-16T10:04:00;7.90;;;2.10;;
17598;SDS011;8918;52.092;5.232;2022-10-16T10:06:32;9.50;;;2.65;;
17598;SDS011;8918;52.092;5.232;2022-10-16T10:12:01;8.75;;;2.35;;
17598;SDS011;8918;52.092;5.232;2022-10-16T10:14:52;7.60;;;2.22;;
17598;SDS011;8918;52.092;5.232;2022-10-16T10:22:53;6.03;;;2.13;;
17598;SDS011;8918;52.092;5.232;2022-10-16T10:27:47;10.35;;;2.40;;
17598;SDS011;8918;52.092;5.232;2022-10-16T10:33:11;5.93;;;2.13;;
17598;SDS011;8918;52.092;5.232;2022-10-16T10:36:05;8.50;;;2.63;;
17598;SDS011;8918;52.092;5.232;2022-10-16T10:38:49;10.82;;;2.58;;
17598;SDS011;8918;52.092;5.232;2022-10-16T10:49:03;9.93;;;2.15;;
17598;SDS011;8918;52.092;5.232;2022-10-16T11:00:16;8.73;;;2.13;;
17598;SDS011;8918;52.092;5.232;2022-10-16T11:05:47;7.18;;;2.20;;
17598;SDS011;8918;52.092;5.232;2022-10-16T11:08:19;7.93;;;2.17;;
17598;SDS011;8918;52.092;5.232;2022-10-16T11:10:58;4.78;;;2.00;;
17598;SDS011;8918;52.092;5.232;2022-10-16T11:16:28;6.35;;;2.00;;
17598;SDS011;8918;52.092;5.232;2022-10-16T11:22:19;7.82;;;2.20;;
17598;SDS011;8918;52.092;5.232;2022-10-16T11:24:52;5.63;;;2.10;;
17598;SDS011;8918;52.092;5.232;2022-10-16T11:27:40;6.75;;;1.98;;
17598;SDS011;8918;52.092;5.232;2022-10-16T11:30:16;10.40;;;2.30;;
17598;SDS011;8918;52.092;5.232;2022-10-16T11:32:54;6.93;;;2.05;;
17598;SDS011;8918;52.092;5.232;2022-10-16T11:35:39;11.75;;;2.33;;
17598;SDS011;8918;52.092;5.232;2022-10-16T11:40:53;6.68;;;2.40;;
17598;SDS011;8918;52.092;5.232;2022-10-16T11:43:32;7.05;;;2.60;;
17598;SDS011;8918;52.092;5.232;2022-10-16T11:46:04;5.40;;;1.80;;
17598;SDS011;8918;52.092;5.232;2022-10-16T11:48:45;9.15;;;2.42;;
17598;SDS011;8918;52.092;5.232;2022-10-16T11:54:22;10.68;;;2.13;;
17598;SDS011;8918;52.092;5.232;2022-10-16T11:57:12;10.13;;;2.15;;
17598;SDS011;8918;52.092;5.232;2022-10-16T12:02:55;9.25;;;2.35;;
17598;SDS011;8918;52.092;5.232;2022-10-16T12:08:09;5.47;;;1.83;;
17598;SDS011;8918;52.092;5.232;2022-10-16T12:10:37;5.10;;;1.83;;
17598;SDS011;8918;52.092;5.232;2022-10-16T12:13:26;7.63;;;2.30;;
17598;SDS011;8918;52.092;5.232;2022-10-16T12:16:19;6.53;;;1.90;;
17598;SDS011;8918;52.092;5.232;2022-10-16T12:18:47;7.30;;;1.60;;
17598;SDS011;8918;52.092;5.232;2022-10-16T12:21:14;7.38;;;1.75;;
17598;SDS011;8918;52.092;5.232;2022-10-16T12:23:54;7.72;;;1.80;;
17598;SDS011;8918;52.092;5.232;2022-10-16T12:26:25;9.27;;;1.95;;
17598;SDS011;8918;52.092;5.232;2022-10-16T12:28:52;8.23;;;2.10;;
17598;SDS011;8918;52.092;5.232;2022-10-16T12:31:18;7.95;;;1.98;;
17598;SDS011;8918;52.092;5.232;2022-10-16T12:34:01;7.70;;;2.08;;
17598;SDS011;8918;52.092;5.232;2022-10-16T12:36:29;9.30;;;1.95;;
17598;SDS011;8918;52.092;5.232;2022-10-16T12:38:58;4.95;;;1.90;;
17598;SDS011;8918;52.092;5.232;2022-10-16T12:41:26;6.57;;;2.10;;
17598;SDS011;8918;52.092;5.232;2022-10-16T12:43:56;8.30;;;1.83;;
17598;SDS011;8918;52.092;5.232;2022-10-16T12:46:24;5.88;;;1.77;;
17598;SDS011;8918;52.092;5.232;2022-10-16T12:51:38;7.40;;;1.95;;
17598;SDS011;8918;52.092;5.232;2022-10-16T12:57:02;7.80;;;1.70;;
17598;SDS011;8918;52.092;5.232;2022-10-16T13:02:14;6.43;;;2.10;;
17598;SDS011;8918;52.092;5.232;2022-10-16T13:07:44;5.65;;;1.70;;
17598;SDS011;8918;52.092;5.232;2022-10-16T13:18:19;7.15;;;1.80;;
17598;SDS011;8918;52.092;5.232;2022-10-16T13:26:19;6.35;;;1.80;;
17598;SDS011;8918;52.092;5.232;2022-10-16T13:29:05;6.30;;;1.77;;
17598;SDS011;8918;52.092;5.232;2022-10-16T13:31:30;8.23;;;2.00;;
17598;SDS011;8918;52.092;5.232;2022-10-16T13:33:57;6.93;;;1.80;;
17598;SDS011;8918;52.092;5.232;2022-10-16T13:36:28;8.43;;;2.10;;
17598;SDS011;8918;52.092;5.232;2022-10-16T13:39:00;8.75;;;1.92;;
17598;SDS011;8918;52.092;5.232;2022-10-16T13:41:26;8.88;;;2.30;;
17598;SDS011;8918;52.092;5.232;2022-10-16T13:43:52;6.25;;;1.73;;
17598;SDS011;8918;52.092;5.232;2022-10-16T13:46:22;5.60;;;1.90;;
17598;SDS011;8918;52.092;5.232;2022-10-16T13:48:59;7.25;;;2.03;;
17598;SDS011;8918;52.092;5.232;2022-10-16T13:51:30;6.25;;;2.00;;
17598;SDS011;8918;52.092;5.232;2022-10-16T13:53:57;8.88;;;1.90;;
17598;SDS011;8918;52.092;5.232;2022-10-16T13:56:27;10.10;;;2.40;;
17598;SDS011;8918;52.092;5.232;2022-10-16T13:58:58;7.68;;;2.30;;
17598;SDS011;8918;52.092;5.232;2022-10-16T14:01:25;9.30;;;2.13;;
17598;SDS011;8918;52.092;5.232;2022-10-16T14:03:59;10.38;;;2.10;;
17598;SDS011;8918;52.092;5.232;2022-10-16T14:06:27;8.32;;;1.90;;
17598;SDS011;8918;52.092;5.232;2022-10-16T14:09:16;8.40;;;2.45;;
17598;SDS011;8918;52.092;5.232;2022-10-16T14:12:00;6.55;;;2.33;;
17598;SDS011;8918;52.092;5.232;2022-10-16T14:14:31;6.43;;;1.83;;
17598;SDS011;8918;52.092;5.232;2022-10-16T14:17:00;9.90;;;2.33;;
17598;SDS011;8918;52.092;5.232;2022-10-16T14:19:27;6.72;;;1.90;;
17598;SDS011;8918;52.092;5.232;2022-10-16T14:21:55;11.45;;;3.33;;
17598;SDS011;8918;52.092;5.232;2022-10-16T14:24:25;10.40;;;2.15;;
17598;SDS011;8918;52.092;5.232;2022-10-16T14:26:51;5.88;;;2.05;;
17598;SDS011;8918;52.092;5.232;2022-10-16T14:29:21;10.43;;;1.85;;
17598;SDS011;8918;52.092;5.232;2022-10-16T14:31:54;6.22;;;1.80;;
17598;SDS011;8918;52.092;5.232;2022-10-16T14:34:25;9.80;;;2.30;;
17598;SDS011;8918;52.092;5.232;2022-10-16T14:37:09;7.53;;;2.05;;
17598;SDS011;8918;52.092;5.232;2022-10-16T14:39:49;8.35;;;1.95;;
17598;SDS011;8918;52.092;5.232;2022-10-16T14:42:16;6.82;;;2.03;;
17598;SDS011;8918;52.092;5.232;2022-10-16T14:44:44;8.38;;;2.08;;
17598;SDS011;8918;52.092;5.232;2022-10-16T14:47:16;7.65;;;1.88;;
17598;SDS011;8918;52.092;5.232;2022-10-16T14:49:47;7.25;;;1.98;;
17598;SDS011;8918;52.092;5.232;2022-10-16T14:52:13;8.68;;;2.13;;
17598;SDS011;8918;52.092;5.232;2022-10-16T14:54:39;6.57;;;2.25;;
17598;SDS011;8918;52.092;5.232;2022-10-16T14:57:05;10.40;;;2.00;;
17598;SDS011;8918;52.092;5.232;2022-10-16T14:59:40;8.73;;;2.10;;
17598;SDS011;8918;52.092;5.232;2022-10-16T15:02:18;4.90;;;1.92;;
17598;SDS011;8918;52.092;5.232;2022-10-16T15:04:48;6.00;;;2.30;;
17598;SDS011;8918;52.092;5.232;2022-10-16T15:07:14;11.98;;;2.45;;
17598;SDS011;8918;52.092;5.232;2022-10-16T15:09:40;10.93;;;2.75;;
17598;SDS011;8918;52.092;5.232;2022-10-16T15:12:05;6.55;;;2.58;;
17598;SDS011;8918;52.092;5.232;2022-10-16T15:14:31;6.13;;;2.05;;
17598;SDS011;8918;52.092;5.232;2022-10-16T15:16:56;7.00;;;2.08;;
17598;SDS011;8918;52.092;5.232;2022-10-16T15:19:22;8.60;;;2.20;;
17598;SDS011;8918;52.092;5.232;2022-10-16T15:21:48;5.10;;;1.92;;
17598;SDS011;8918;52.092;5.232;2022-10-16T15:24:14;10.02;;;2.10;;
17598;SDS011;8918;52.092;5.232;2022-10-16T15:26:40;4.72;;;1.85;;
17598;SDS011;8918;52.092;5.232;2022-10-16T15:29:05;8.13;;;2.30;;
17598;SDS011;8918;52.092;5.232;2022-10-16T15:31:31;8.50;;;2.42;;
17598;SDS011;8918;52.092;5.232;2022-10-16T15:33:57;8.95;;;3.00;;
17598;SDS011;8918;52.092;5.232;2022-10-16T15:36:29;7.40;;;2.60;;
17598;SDS011;8918;52.092;5.232;2022-10-16T15:38:58;9.13;;;2.75;;
17598;SDS011;8918;52.092;5.232;2022-10-16T15:41:24;7.82;;;2.72;;
17598;SDS011;8918;52.092;5.232;2022-10-16T15:43:50;6.70;;;2.30;;
17598;SDS011;8918;52.092;5.232;2022-10-16T15:46:19;20.10;;;7.43;;
17598;SDS011;8918;52.092;5.232;2022-10-16T15:48:47;23.83;;;13.65;;
17598;SDS011;8918;52.092;5.232;2022-10-16T15:51:13;13.50;;;6.93;;
17598;SDS011;8918;52.092;5.232;2022-10-16T15:53:39;12.63;;;5.63;;
17598;SDS011;8918;52.092;5.232;2022-10-16T15:56:06;12.13;;;5.68;;
17598;SDS011;8918;52.092;5.232;2022-10-16T15:58:33;11.80;;;5.47;;
17598;SDS011;8918;52.092;5.232;2022-10-16T16:00:59;8.75;;;4.55;;
17598;SDS011;8918;52.092;5.232;2022-10-16T16:03:26;10.95;;;4.80;;
17598;SDS011;8918;52.092;5.232;2022-10-16T16:05:53;9.00;;;5.20;;
17598;SDS011;8918;52.092;5.232;2022-10-16T16:08:19;10.60;;;5.45;;
17598;SDS011;8918;52.092;5.232;2022-10-16T16:10:45;10.77;;;5.03;;
17598;SDS011;8918;52.092;5.232;2022-10-16T16:13:10;15.77;;;5.93;;
17598;SDS011;8918;52.092;5.232;2022-10-16T16:15:39;14.07;;;4.85;;
17598;SDS011;8918;52.092;5.232;2022-10-16T16:18:06;10.27;;;5.00;;
17598;SDS011;8918;52.092;5.232;2022-10-16T16:20:32;14.05;;;5.00;;
17598;SDS011;8918;52.092;5.232;2022-10-16T16:22:57;10.25;;;4.53;;
17598;SDS011;8918;52.092;5.232;2022-10-16T16:25:23;12.70;;;4.90;;
17598;SDS011;8918;52.092;5.232;2022-10-16T16:27:48;10.32;;;4.80;;
17598;SDS011;8918;52.092;5.232;2022-10-16T16:30:14;11.52;;;5.63;;
17598;SDS011;8918;52.092;5.232;2022-10-16T16:32:40;14.38;;;6.13;;
17598;SDS011;8918;52.092;5.232;2022-10-16T16:35:05;12.43;;;6.97;;
17598;SDS011;8918;52.092;5.232;2022-10-16T16:37:31;13.82;;;7.35;;
17598;SDS011;8918;52.092;5.232;2022-10-16T16:39:57;15.32;;;8.10;;
17598;SDS011;8918;52.092;5.232;2022-10-16T16:42:23;13.40;;;7.88;;
17598;SDS011;8918;52.092;5.232;2022-10-16T16:44:50;12.80;;;7.53;;
17598;SDS011;8918;52.092;5.232;2022-10-16T16:47:16;17.85;;;8.05;;
17598;SDS011;8918;52.092;5.232;2022-10-16T16:49:41;13.98;;;7.10;;
17598;SDS011;8918;52.092;5.232;2022-10-16T16:52:07;14.32;;;7.80;;
17598;SDS011;8918;52.092;5.232;2022-10-16T16:54:32;13.32;;;7.78;;